createdAt,value
2017-07-21T00:00:32.187Z,99.90
2017-07-21T00:03:01.208Z,99.90
2017-07-21T00:05:29.251Z,99.90
2017-07-21T00:08:01.166Z,99.90
2017-07-21T00:10:29.220Z,99.90
2017-07-21T00:12:59.204Z,99.90
2017-07-21T00:15:29.051Z,99.90
2017-07-21T00:17:58.003Z,99.90
2017-07-21T00:20:26.039Z,99.90
2017-07-21T00:22:55.075Z,99.90
2017-07-21T00:25:23.891Z,99.90
2017-07-21T00:27:51.931Z,99.90
2017-07-21T00:30:21.775Z,99.90
2017-07-21T00:32:51.760Z,99.90
2017-07-21T00:35:21.795Z,99.90
2017-07-21T00:37:49.835Z,99.90
2017-07-21T00:40:18.823Z,99.90
2017-07-21T00:42:54.403Z,99.90
2017-07-21T00:45:23.362Z,99.90
2017-07-21T00:47:57.779Z,99.90
2017-07-21T00:50:27.803Z,99.90
2017-07-21T00:53:08.043Z,99.90
2017-07-21T00:55:54.850Z,99.90
2017-07-21T00:58:33.707Z,99.90
2017-07-21T01:01:06.367Z,99.90
2017-07-21T01:03:42.630Z,99.90
2017-07-21T01:06:17.343Z,99.90
2017-07-21T01:08:45.375Z,99.90
2017-07-21T01:11:13.406Z,99.90
2017-07-21T01:13:42.390Z,99.90
2017-07-21T01:19:10.246Z,99.90
2017-07-21T01:21:39.294Z,99.90
2017-07-21T01:24:15.624Z,99.90
2017-07-21T01:26:54.246Z,99.90
2017-07-21T01:29:23.266Z,99.90
2017-07-21T01:31:52.246Z,99.90
2017-07-21T01:34:20.307Z,99.90
2017-07-21T01:36:48.341Z,99.90
2017-07-21T01:39:27.310Z,99.90
2017-07-21T01:41:59.422Z,99.90
2017-07-21T01:44:34.822Z,99.90
2017-07-21T01:47:08.742Z,99.90
2017-07-21T01:49:38.779Z,99.90
2017-07-21T01:52:12.662Z,99.90
2017-07-21T01:54:46.977Z,99.90
2017-07-21T01:57:16.990Z,99.90
2017-07-21T01:59:45.014Z,99.90
2017-07-21T02:02:18.174Z,99.90
2017-07-21T02:04:47.966Z,99.90
2017-07-21T02:07:16.941Z,99.90
2017-07-21T02:09:48.417Z,99.90
2017-07-21T02:12:16.455Z,99.90
2017-07-21T02:14:45.470Z,99.90
2017-07-21T02:17:25.281Z,99.90
2017-07-21T02:19:58.305Z,99.90
2017-07-21T02:22:26.350Z,99.90
2017-07-21T02:24:54.390Z,99.90
2017-07-21T02:27:23.327Z,99.90
2017-07-21T02:29:51.357Z,99.90
2017-07-21T02:32:25.913Z,99.90
2017-07-21T02:35:02.079Z,99.90
2017-07-21T02:37:35.281Z,99.90
2017-07-21T02:40:08.993Z,99.90
2017-07-21T02:42:58.626Z,99.90
2017-07-21T02:45:46.441Z,99.90
2017-07-21T02:48:14.474Z,99.90
2017-07-21T02:50:53.381Z,99.90
2017-07-21T02:53:34.805Z,99.90
2017-07-21T02:56:04.821Z,99.90
2017-07-21T02:58:36.742Z,99.90
2017-07-21T03:01:05.745Z,99.90
2017-07-21T03:03:33.766Z,99.90
2017-07-21T03:06:06.598Z,99.90
2017-07-21T03:08:35.393Z,99.90
2017-07-21T03:11:11.737Z,99.90
2017-07-21T03:13:50.333Z,99.90
2017-07-21T03:16:19.402Z,99.90
2017-07-21T03:18:51.121Z,99.90
2017-07-21T03:21:24.738Z,99.90
2017-07-21T03:23:52.785Z,99.90
2017-07-21T03:26:27.722Z,99.90
2017-07-21T03:29:06.505Z,99.90
2017-07-21T03:31:44.517Z,99.90
2017-07-21T03:34:12.548Z,99.90
2017-07-21T03:36:46.149Z,99.90
2017-07-21T03:39:14.185Z,99.90
2017-07-21T03:41:43.177Z,99.90
2017-07-21T03:44:16.993Z,99.90
2017-07-21T03:46:48.948Z,99.90
2017-07-21T03:49:18.969Z,99.90
2017-07-21T03:51:48.713Z,99.90
2017-07-21T03:54:16.745Z,99.90
2017-07-21T03:56:49.538Z,99.90
2017-07-21T03:59:41.316Z,99.90
2017-07-21T04:02:09.365Z,99.90
2017-07-21T04:04:38.313Z,99.90
2017-07-21T04:07:06.337Z,99.90
2017-07-21T04:09:36.337Z,99.90
2017-07-21T04:12:14.501Z,99.90
2017-07-21T04:14:49.957Z,99.90
2017-07-21T04:17:25.801Z,99.90
2017-07-21T04:19:57.477Z,99.90
2017-07-21T04:22:31.948Z,99.90
2017-07-21T04:25:10.696Z,99.90
2017-07-21T04:27:38.748Z,99.90
2017-07-21T04:30:08.696Z,99.90
2017-07-21T04:32:40.380Z,99.90
2017-07-21T04:35:15.252Z,99.90
2017-07-21T04:37:45.337Z,99.90
2017-07-21T04:40:15.316Z,99.90
2017-07-21T04:42:44.111Z,99.90
2017-07-21T04:45:13.920Z,99.90
2017-07-21T04:47:44.657Z,99.90
2017-07-21T04:50:13.472Z,99.90
2017-07-21T04:52:50.324Z,99.90
2017-07-21T04:55:21.044Z,99.90
2017-07-21T04:57:50.043Z,99.90
2017-07-21T05:00:42.340Z,99.90
2017-07-21T05:03:24.620Z,99.90
2017-07-21T05:05:58.588Z,99.90
2017-07-21T05:08:26.624Z,99.90
2017-07-21T05:10:55.652Z,99.90
2017-07-21T05:13:23.675Z,99.90
2017-07-21T05:15:56.217Z,99.90
2017-07-21T05:18:31.620Z,99.90
2017-07-21T05:21:02.708Z,99.90
2017-07-21T05:23:37.060Z,99.90
2017-07-21T05:26:06.097Z,99.90
2017-07-21T05:28:34.116Z,99.90
2017-07-21T05:31:06.357Z,99.90
2017-07-21T05:33:46.755Z,99.90
2017-07-21T05:36:28.244Z,99.90
2017-07-21T05:39:02.156Z,99.90
2017-07-21T05:41:32.204Z,99.90
2017-07-21T05:44:02.220Z,98.80
2017-07-21T05:46:32.256Z,98.00
2017-07-21T05:49:02.972Z,95.50
2017-07-21T05:51:31.008Z,95.40
2017-07-21T05:54:03.203Z,94.50
2017-07-21T05:56:31.239Z,93.70
2017-07-21T05:59:01.168Z,93.30
2017-07-21T06:01:35.800Z,92.30
2017-07-21T06:04:11.431Z,92.40
2017-07-21T06:06:40.476Z,91.50
2017-07-21T06:09:15.176Z,90.30
2017-07-21T06:11:48.796Z,90.30
2017-07-21T06:14:19.548Z,85.90
2017-07-21T06:16:48.475Z,85.80
2017-07-21T06:19:29.572Z,86.50
2017-07-21T06:21:58.612Z,84.30
2017-07-21T06:24:37.391Z,80.60
2017-07-21T06:27:09.376Z,78.50
2017-07-21T06:29:40.107Z,76.60
2017-07-21T06:32:08.135Z,76.60
2017-07-21T06:34:37.195Z,76.00
2017-07-21T06:37:05.232Z,75.50
2017-07-21T06:39:36.727Z,75.50
2017-07-21T06:42:10.308Z,76.60
2017-07-21T06:44:51.308Z,74.50
2017-07-21T06:47:22.507Z,73.20
2017-07-21T06:50:00.751Z,70.00
2017-07-21T06:52:28.775Z,70.90
2017-07-21T06:55:00.527Z,69.30
2017-07-21T06:57:29.447Z,69.10
2017-07-21T07:00:06.598Z,70.60
2017-07-21T07:02:35.515Z,70.40
2017-07-21T07:05:03.535Z,72.80
2017-07-21T07:07:34.968Z,72.40
2017-07-21T07:10:02.989Z,70.20
2017-07-21T07:12:34.263Z,70.50
2017-07-21T07:15:04.963Z,70.80
2017-07-21T07:17:32.990Z,70.70
2017-07-21T07:20:01.043Z,68.80
2017-07-21T07:22:29.083Z,68.50
2017-07-21T07:24:57.103Z,66.90
2017-07-21T07:27:25.151Z,66.10
2017-07-21T07:29:53.183Z,63.50
2017-07-21T07:32:22.179Z,62.30
2017-07-21T07:34:50.206Z,59.70
2017-07-21T07:37:18.227Z,58.50
2017-07-21T07:39:49.490Z,57.90
2017-07-21T07:42:25.011Z,58.30
2017-07-21T07:44:55.039Z,58.00
2017-07-21T07:47:24.831Z,56.50
2017-07-21T07:49:52.858Z,56.00
2017-07-21T07:52:20.886Z,55.30
2017-07-21T07:54:49.012Z,54.80
2017-07-21T07:57:22.015Z,54.90
2017-07-21T07:59:54.739Z,55.80
2017-07-21T08:02:23.715Z,54.60
2017-07-21T08:04:52.702Z,53.90
2017-07-21T08:07:21.686Z,51.40
2017-07-21T08:09:50.702Z,50.50
2017-07-21T08:12:18.730Z,48.90
2017-07-21T08:14:49.706Z,50.20
2017-07-21T08:17:18.698Z,49.80
2017-07-21T08:19:59.534Z,48.10
2017-07-21T08:22:34.482Z,48.00
2017-07-21T08:25:02.506Z,48.90
2017-07-21T08:27:30.537Z,46.10
2017-07-21T08:29:58.562Z,46.20
2017-07-21T08:32:26.582Z,45.20
2017-07-21T08:34:56.258Z,45.60
2017-07-21T08:37:30.571Z,45.30
2017-07-21T08:40:00.511Z,44.00
2017-07-21T08:42:28.522Z,44.30
2017-07-21T08:45:02.279Z,43.70
2017-07-21T08:47:37.095Z,43.80
2017-07-21T08:50:08.995Z,43.80
2017-07-21T08:52:37.959Z,45.00
2017-07-21T08:55:06.078Z,45.00
2017-07-21T08:57:34.114Z,44.10
2017-07-21T09:00:02.138Z,44.00
2017-07-21T09:02:33.538Z,42.20
2017-07-21T09:05:01.566Z,41.10
2017-07-21T09:07:29.610Z,40.60
2017-07-21T09:09:59.590Z,42.50
2017-07-21T09:12:27.625Z,42.10
2017-07-21T09:14:59.422Z,42.70
2017-07-21T09:17:27.461Z,42.30
2017-07-21T09:20:00.170Z,41.30
2017-07-21T09:22:28.210Z,41.80
2017-07-21T09:24:56.454Z,41.80
2017-07-21T09:27:25.354Z,41.00
2017-07-21T09:29:59.517Z,40.40
2017-07-21T09:32:28.433Z,40.60
2017-07-21T09:34:58.418Z,39.80
2017-07-21T09:37:31.577Z,37.70
2017-07-21T09:40:00.493Z,36.50
2017-07-21T09:42:28.514Z,37.20
2017-07-21T09:44:56.558Z,36.30
2017-07-21T09:47:24.577Z,38.30
2017-07-21T09:49:52.597Z,38.50
2017-07-21T09:52:27.749Z,41.50
2017-07-21T09:54:55.777Z,41.40
2017-07-21T09:57:25.718Z,42.50
2017-07-21T09:59:53.745Z,41.30
2017-07-21T10:02:21.761Z,41.20
2017-07-21T10:04:51.191Z,40.20
2017-07-21T10:07:19.257Z,38.40
2017-07-21T10:09:47.285Z,38.90
2017-07-21T10:12:15.301Z,37.50
2017-07-21T10:14:44.273Z,37.20
2017-07-21T10:17:12.293Z,37.20
2017-07-21T10:19:40.323Z,37.70
2017-07-21T10:22:10.112Z,35.20
2017-07-21T10:24:38.148Z,35.20
2017-07-21T10:27:06.169Z,35.90
2017-07-21T10:29:35.989Z,35.50
2017-07-21T10:32:04.781Z,36.10
2017-07-21T10:34:32.805Z,36.10
2017-07-21T10:37:00.841Z,35.80
2017-07-21T10:39:28.877Z,35.00
2017-07-21T10:41:58.668Z,33.60
2017-07-21T10:44:26.877Z,33.60
2017-07-21T10:46:55.852Z,35.30
2017-07-21T10:49:24.819Z,35.60
2017-07-21T10:52:00.284Z,34.80
2017-07-21T10:54:30.101Z,35.70
2017-07-21T10:56:59.797Z,36.80
2017-07-21T10:59:31.660Z,36.80
2017-07-21T11:02:01.704Z,38.00
2017-07-21T11:04:34.968Z,38.60
2017-07-21T11:07:14.401Z,37.70
2017-07-21T11:09:42.436Z,35.20
2017-07-21T11:12:14.964Z,36.70
2017-07-21T11:14:45.676Z,38.00
2017-07-21T11:17:14.680Z,37.70
2017-07-21T11:19:44.704Z,37.80
2017-07-21T11:22:17.689Z,35.40
2017-07-21T11:24:45.712Z,35.40
2017-07-21T11:27:15.664Z,35.90
2017-07-21T11:29:43.692Z,35.30
2017-07-21T11:32:12.644Z,35.10
2017-07-21T11:34:41.624Z,33.30
2017-07-21T11:37:09.652Z,31.60
2017-07-21T11:39:37.688Z,29.90
2017-07-21T11:42:05.720Z,31.00
2017-07-21T11:44:34.728Z,31.10
2017-07-21T11:47:02.784Z,31.60
2017-07-21T11:49:31.720Z,31.10
2017-07-21T11:51:59.761Z,31.50
2017-07-21T11:54:28.688Z,31.00
2017-07-21T11:56:57.619Z,31.20
2017-07-21T11:59:27.548Z,30.30
2017-07-21T12:01:56.496Z,30.80
2017-07-21T12:04:25.411Z,30.90
2017-07-21T12:06:53.436Z,30.10
2017-07-21T12:09:21.492Z,29.50
2017-07-21T12:11:50.294Z,27.60
2017-07-21T12:14:18.339Z,27.50
2017-07-21T12:16:52.160Z,26.70
2017-07-21T12:19:24.099Z,26.70
2017-07-21T12:21:52.131Z,29.10
2017-07-21T12:24:22.076Z,30.60
2017-07-21T12:26:50.099Z,31.60
2017-07-21T12:29:20.103Z,30.70
2017-07-21T12:31:48.140Z,32.10
2017-07-21T12:34:16.163Z,32.80
2017-07-21T12:36:47.612Z,32.50
2017-07-21T12:39:15.631Z,32.30
2017-07-21T12:41:45.552Z,31.00
2017-07-21T12:44:16.591Z,32.90
2017-07-21T12:46:46.279Z,29.60
2017-07-21T12:49:14.311Z,30.00
2017-07-21T12:51:44.311Z,28.80
2017-07-21T12:54:12.355Z,28.30
2017-07-21T12:56:42.271Z,29.50
2017-07-21T12:59:11.223Z,29.60
2017-07-21T13:01:40.147Z,30.70
2017-07-21T13:04:09.063Z,33.60
2017-07-21T13:06:37.863Z,33.00
2017-07-21T13:09:05.883Z,32.90
2017-07-21T13:11:33.899Z,32.90
2017-07-21T13:14:01.956Z,29.40
2017-07-21T13:16:43.715Z,30.10
2017-07-21T13:19:15.919Z,29.80
2017-07-21T13:21:47.619Z,32.70
2017-07-21T13:24:22.043Z,32.60
2017-07-21T13:26:50.059Z,30.80
2017-07-21T13:29:18.855Z,31.40
2017-07-21T13:31:47.774Z,31.40
2017-07-21T13:34:16.703Z,31.60
2017-07-21T13:36:44.719Z,30.00
2017-07-21T13:39:12.751Z,30.00
2017-07-21T13:41:49.084Z,29.20
2017-07-21T13:44:17.079Z,29.90
2017-07-21T13:46:45.099Z,28.80
2017-07-21T13:49:13.115Z,28.60
2017-07-21T13:51:44.163Z,29.00
2017-07-21T13:54:14.083Z,31.20
2017-07-21T13:56:45.567Z,32.80
2017-07-21T13:59:13.582Z,30.60
2017-07-21T14:01:45.171Z,29.60
2017-07-21T14:04:16.906Z,28.70
2017-07-21T14:06:46.834Z,28.70
2017-07-21T14:09:16.742Z,28.40
2017-07-21T14:11:45.655Z,28.60
2017-07-21T14:14:17.886Z,30.30
2017-07-21T14:16:49.551Z,30.30
2017-07-21T14:19:24.878Z,30.60
2017-07-21T14:21:55.923Z,31.90
2017-07-21T14:24:23.943Z,32.10
2017-07-21T14:26:51.971Z,31.80
2017-07-21T14:29:20.875Z,32.90
2017-07-21T14:31:49.791Z,34.80
2017-07-21T14:34:18.714Z,35.80
2017-07-21T14:36:50.624Z,36.70
2017-07-21T14:39:18.654Z,36.40
2017-07-21T14:41:52.011Z,37.00
2017-07-21T14:44:25.478Z,36.00
2017-07-21T14:46:54.399Z,34.90
2017-07-21T14:49:42.095Z,35.60
2017-07-21T14:52:37.738Z,33.70
2017-07-21T14:55:12.459Z,32.70
2017-07-21T14:57:42.391Z,33.80
2017-07-21T15:00:13.604Z,32.40
2017-07-21T15:02:47.135Z,32.20
2017-07-21T15:05:39.019Z,31.30
2017-07-21T15:08:16.847Z,31.80
2017-07-21T15:10:53.654Z,30.60
2017-07-21T15:13:28.075Z,30.10
2017-07-21T15:16:09.455Z,31.00
2017-07-21T15:18:47.390Z,31.70
2017-07-21T15:21:15.423Z,30.60
2017-07-21T15:23:45.351Z,31.40
2017-07-21T15:26:17.019Z,29.80
2017-07-21T15:28:52.270Z,29.80
2017-07-21T15:31:20.303Z,29.90
2017-07-21T15:34:06.546Z,30.60
2017-07-21T15:36:34.603Z,32.30
2017-07-21T15:39:02.631Z,31.90
2017-07-21T15:41:34.166Z,32.50
2017-07-21T15:44:03.098Z,31.30
2017-07-21T15:46:33.006Z,32.10
2017-07-21T15:49:01.063Z,32.90
2017-07-21T15:51:42.343Z,35.00
2017-07-21T15:54:12.286Z,33.90
2017-07-21T15:56:42.239Z,34.20
2017-07-21T15:59:14.921Z,35.10
2017-07-21T16:02:01.030Z,33.40
2017-07-21T16:04:48.682Z,33.70
2017-07-21T16:07:29.578Z,34.00
2017-07-21T16:09:59.534Z,34.10
2017-07-21T16:12:35.754Z,34.30
2017-07-21T16:15:18.130Z,34.30
2017-07-21T16:18:03.830Z,34.60
2017-07-21T16:20:48.506Z,35.10
2017-07-21T16:23:17.425Z,36.00
2017-07-21T16:25:57.054Z,35.90
2017-07-21T16:28:37.465Z,37.50
2017-07-21T16:31:18.961Z,35.90
2017-07-21T16:34:01.525Z,35.10
2017-07-21T16:36:39.426Z,35.00
2017-07-21T16:39:07.450Z,35.00
2017-07-21T16:47:23.381Z,34.60
2017-07-21T16:50:03.869Z,34.90
2017-07-21T16:55:37.273Z,35.60
2017-07-21T16:58:07.237Z,36.30
2017-07-21T17:03:39.545Z,34.70
2017-07-21T17:21:13.272Z,39.50
2017-07-21T17:29:28.200Z,42.20
2017-07-21T17:32:03.364Z,42.80
2017-07-21T17:34:52.089Z,43.60
2017-07-21T17:52:06.996Z,44.70
2017-07-21T18:03:57.375Z,45.20
2017-07-21T18:12:48.867Z,47.70
2017-07-21T18:30:15.263Z,48.90
2017-07-21T18:35:51.751Z,49.00
2017-07-21T18:38:19.786Z,49.20
2017-07-21T18:41:13.395Z,49.50
2017-07-21T18:43:53.747Z,49.50
2017-07-21T18:46:26.833Z,50.30
2017-07-21T18:48:54.851Z,49.60
2017-07-21T18:51:24.779Z,49.80
2017-07-21T18:54:00.263Z,50.70
2017-07-21T18:56:34.039Z,50.60
2017-07-21T18:59:13.694Z,50.90
2017-07-21T19:01:43.623Z,51.10
2017-07-21T19:04:15.555Z,51.10
2017-07-21T19:06:48.290Z,51.10
2017-07-21T19:09:24.459Z,51.50
2017-07-21T19:12:13.410Z,51.40
2017-07-21T19:14:53.078Z,51.80
2017-07-21T19:17:31.771Z,52.00
2017-07-21T19:19:59.806Z,52.10
2017-07-21T19:22:31.567Z,52.70
2017-07-21T19:25:01.547Z,53.30
2017-07-21T19:27:29.574Z,54.00
2017-07-21T19:29:59.522Z,54.40
2017-07-21T19:32:34.654Z,54.40
2017-07-21T19:35:14.210Z,54.50
2017-07-21T19:37:42.254Z,54.50
2017-07-21T19:40:10.283Z,54.70
2017-07-21T19:42:42.630Z,55.70
2017-07-21T19:45:14.486Z,58.30
2017-07-21T19:47:48.110Z,58.20
2017-07-21T19:50:16.122Z,58.20
2017-07-21T19:52:44.166Z,58.60
2017-07-21T19:55:17.847Z,58.90
2017-07-21T19:57:46.883Z,59.70
2017-07-21T20:00:25.018Z,61.90
2017-07-21T20:02:54.035Z,63.60
2017-07-21T20:05:23.022Z,65.10
2017-07-21T20:07:52.866Z,68.00
2017-07-21T20:10:24.683Z,67.90
2017-07-21T20:13:04.122Z,68.50
2017-07-21T20:15:35.979Z,67.90
2017-07-21T20:18:04.014Z,67.00
2017-07-21T20:20:32.943Z,66.90
2017-07-21T20:23:07.646Z,66.40
2017-07-21T20:25:46.158Z,66.60
2017-07-21T20:28:17.134Z,65.50
2017-07-21T20:30:45.939Z,64.00
2017-07-21T20:33:14.926Z,63.90
2017-07-21T20:35:43.166Z,63.00
2017-07-21T20:38:11.198Z,61.90
2017-07-21T20:40:43.642Z,60.80
2017-07-21T20:43:15.227Z,59.90
2017-07-21T20:45:43.278Z,59.60
2017-07-21T20:48:15.406Z,59.80
2017-07-21T20:50:47.931Z,60.50
2017-07-21T20:53:15.967Z,61.60
2017-07-21T20:55:44.907Z,61.60
2017-07-21T20:58:18.938Z,62.30
2017-07-21T21:00:47.950Z,62.90
2017-07-21T21:03:15.986Z,63.00
2017-07-21T21:05:44.038Z,65.00
2017-07-21T21:08:18.242Z,66.00
2017-07-21T21:10:53.101Z,65.60
2017-07-21T21:13:25.007Z,63.70
2017-07-21T21:15:56.626Z,63.30
2017-07-21T21:18:24.690Z,63.40
2017-07-21T21:20:53.742Z,63.30
2017-07-21T21:23:22.542Z,63.70
2017-07-21T21:25:50.594Z,63.70
2017-07-21T21:28:21.762Z,63.90
2017-07-21T21:30:50.578Z,63.90
2017-07-21T21:33:18.618Z,63.80
2017-07-21T21:35:52.534Z,64.10
2017-07-21T21:38:21.490Z,64.10
2017-07-21T21:40:56.242Z,64.80
2017-07-21T21:43:25.206Z,64.80
2017-07-21T21:45:53.234Z,64.90
2017-07-21T21:48:25.130Z,65.20
2017-07-21T21:50:55.062Z,65.70
2017-07-21T21:53:23.870Z,66.60
2017-07-21T21:55:55.294Z,66.60
2017-07-21T21:58:24.098Z,67.00
2017-07-21T22:00:53.066Z,67.00
2017-07-21T22:03:24.114Z,66.90
2017-07-21T22:05:56.705Z,67.30
2017-07-21T22:08:32.110Z,67.10
2017-07-21T22:11:00.154Z,66.90
2017-07-21T22:13:33.874Z,66.90
2017-07-21T22:16:07.390Z,66.60
2017-07-21T22:18:39.162Z,66.40
2017-07-21T22:21:09.105Z,66.10
2017-07-21T22:23:39.062Z,66.60
2017-07-21T22:26:11.249Z,67.10
2017-07-21T22:28:43.046Z,67.60
2017-07-21T22:31:11.066Z,67.80
2017-07-21T22:33:40.023Z,68.00
2017-07-21T22:36:08.077Z,67.70
2017-07-21T22:38:36.114Z,67.50
2017-07-21T22:41:04.150Z,67.70
2017-07-21T22:43:32.206Z,67.50
2017-07-21T22:46:01.162Z,67.70
2017-07-21T22:48:29.977Z,68.70
2017-07-21T22:50:59.981Z,67.90
2017-07-21T22:53:31.757Z,68.00
2017-07-21T22:56:05.473Z,68.30
2017-07-21T22:58:39.018Z,69.00
2017-07-21T23:01:07.977Z,69.40
2017-07-21T23:03:39.245Z,69.70
2017-07-21T23:06:10.949Z,69.90
2017-07-21T23:08:43.549Z,69.90
2017-07-21T23:11:15.157Z,70.00
2017-07-21T23:13:44.853Z,70.40
2017-07-21T23:16:16.433Z,70.40
2017-07-21T23:18:48.913Z,70.60
2017-07-21T23:21:16.985Z,70.70
2017-07-21T23:23:45.017Z,70.70
2017-07-21T23:26:16.693Z,70.90
2017-07-21T23:28:52.990Z,72.40
2017-07-21T23:31:24.089Z,72.40
2017-07-21T23:33:56.572Z,72.20
2017-07-21T23:36:29.473Z,71.10
2017-07-21T23:38:57.506Z,71.10
2017-07-21T23:41:27.461Z,71.70
2017-07-21T23:43:55.512Z,71.30
2017-07-21T23:46:27.297Z,71.30
2017-07-21T23:48:55.334Z,71.20
2017-07-21T23:51:33.289Z,71.20
2017-07-21T23:54:05.405Z,71.40
2017-07-21T23:56:36.137Z,71.50
2017-07-21T23:59:08.808Z,71.50
